createdAt,value
2023-09-27T00:02:12.953Z,17.40
2023-09-27T00:06:16.284Z,17.35
2023-09-27T00:10:18.936Z,17.28
2023-09-27T00:14:21.477Z,17.22
2023-09-27T00:18:23.851Z,17.14
2023-09-27T00:22:25.894Z,17.03
2023-09-27T00:26:27.943Z,16.94
2023-09-27T00:30:30.309Z,16.86
2023-09-27T00:34:32.499Z,16.81
2023-09-27T00:38:35.277Z,16.75
2023-09-27T00:42:38.000Z,16.66
2023-09-27T00:46:41.006Z,16.58
2023-09-27T00:50:43.134Z,16.51
2023-09-27T00:54:45.570Z,16.48
2023-09-27T00:58:49.115Z,16.49
2023-09-27T01:02:51.525Z,16.49
2023-09-27T01:06:53.725Z,16.44
2023-09-27T01:10:55.934Z,16.37
2023-09-27T01:14:57.995Z,16.33
2023-09-27T01:19:03.660Z,16.31
2023-09-27T01:23:06.866Z,16.33
2023-09-27T01:27:10.751Z,16.33
2023-09-27T01:31:14.616Z,16.36
2023-09-27T01:35:16.810Z,16.40
2023-09-27T01:39:19.195Z,16.42
2023-09-27T01:43:21.703Z,16.33
2023-09-27T01:47:24.164Z,16.25
2023-09-27T01:51:26.263Z,16.20
2023-09-27T01:55:28.345Z,16.08
2023-09-27T01:59:30.417Z,15.88
2023-09-27T02:03:32.523Z,15.71
2023-09-27T02:07:41.938Z,15.58
2023-09-27T02:11:44.252Z,15.47
2023-09-27T02:15:46.651Z,15.36
2023-09-27T02:19:48.687Z,15.26
2023-09-27T02:23:50.713Z,15.22
2023-09-27T02:27:52.805Z,15.17
2023-09-27T02:31:54.829Z,15.07
2023-09-27T02:35:56.805Z,14.98
2023-09-27T02:39:59.393Z,14.89
2023-09-27T02:44:03.427Z,14.83
2023-09-27T02:48:05.917Z,14.86
2023-09-27T02:52:07.991Z,14.93
2023-09-27T02:56:10.107Z,15.03
2023-09-27T03:00:12.431Z,15.10
2023-09-27T03:04:16.640Z,15.12
2023-09-27T03:08:19.358Z,15.13
2023-09-27T03:12:21.359Z,15.14
2023-09-27T03:16:24.389Z,15.14
2023-09-27T03:20:27.615Z,15.16
2023-09-27T03:24:30.814Z,15.18
2023-09-27T03:28:32.876Z,15.23
2023-09-27T03:32:35.492Z,15.24
2023-09-27T03:36:38.535Z,15.22
2023-09-27T03:40:41.156Z,15.17
2023-09-27T03:44:43.171Z,15.08
2023-09-27T03:48:45.369Z,14.97
2023-09-27T03:52:47.471Z,14.80
2023-09-27T03:56:49.459Z,14.68
2023-09-27T04:00:51.486Z,14.65
2023-09-27T04:04:53.521Z,14.65
2023-09-27T04:08:55.828Z,14.60
2023-09-27T04:12:58.056Z,14.51
2023-09-27T04:17:02.312Z,14.47
2023-09-27T04:21:09.095Z,14.44
2023-09-27T04:25:15.498Z,14.31
2023-09-27T04:29:17.586Z,14.21
2023-09-27T04:33:19.969Z,14.12
2023-09-27T04:37:22.482Z,14.06
2023-09-27T04:41:24.883Z,14.09
2023-09-27T04:45:27.066Z,14.14
2023-09-27T04:49:29.189Z,14.21
2023-09-27T04:53:35.353Z,14.28
2023-09-27T04:57:37.958Z,14.30
2023-09-27T05:01:39.993Z,14.28
2023-09-27T05:05:42.127Z,14.21
2023-09-27T05:09:44.416Z,14.14
2023-09-27T05:13:47.421Z,14.12
2023-09-27T05:17:49.501Z,14.14
2023-09-27T05:21:51.541Z,14.19
2023-09-27T05:25:53.572Z,14.31
2023-09-27T05:29:55.922Z,14.42
2023-09-27T05:33:57.956Z,14.54
2023-09-27T05:38:00.279Z,14.70
2023-09-27T05:42:02.649Z,14.85
2023-09-27T05:46:04.648Z,14.98
2023-09-27T05:50:14.491Z,15.07
2023-09-27T05:54:20.157Z,15.17
2023-09-27T05:58:22.162Z,15.24
2023-09-27T06:02:31.597Z,15.36
2023-09-27T06:06:34.893Z,15.50
2023-09-27T06:10:36.916Z,15.65
2023-09-27T06:14:44.696Z,15.81
2023-09-27T06:18:46.702Z,15.98
2023-09-27T06:22:54.964Z,16.11
2023-09-27T06:26:56.866Z,16.24
2023-09-27T06:31:00.269Z,16.39
2023-09-27T06:35:11.253Z,16.54
2023-09-27T06:39:13.946Z,16.74
2023-09-27T06:43:16.127Z,16.89
2023-09-27T06:47:18.142Z,17.05
2023-09-27T06:51:20.714Z,17.21
2023-09-27T06:55:23.339Z,17.37
2023-09-27T06:59:26.376Z,17.56
2023-09-27T07:03:30.434Z,17.72
2023-09-27T07:07:32.595Z,17.92
2023-09-27T07:11:35.085Z,18.16
2023-09-27T07:15:37.856Z,18.37
2023-09-27T07:19:40.446Z,18.62
2023-09-27T07:23:42.955Z,18.90
2023-09-27T07:27:47.069Z,19.19
2023-09-27T07:31:49.094Z,19.47
2023-09-27T07:35:52.844Z,19.75
2023-09-27T07:39:54.836Z,20.03
2023-09-27T07:43:56.911Z,20.29
2023-09-27T07:47:59.408Z,20.58
2023-09-27T07:52:01.477Z,20.87
2023-09-27T07:56:03.812Z,21.08
2023-09-27T08:00:09.540Z,21.28
2023-09-27T08:04:15.940Z,21.52
2023-09-27T08:08:18.124Z,21.62
2023-09-27T08:12:21.242Z,21.82
2023-09-27T08:16:23.294Z,22.06
2023-09-27T08:20:25.465Z,22.26
2023-09-27T08:24:27.854Z,22.43
2023-09-27T08:28:34.269Z,22.54
2023-09-27T08:32:36.456Z,22.72
2023-09-27T08:36:38.587Z,22.89
2023-09-27T08:40:43.283Z,23.02
2023-09-27T08:44:46.363Z,23.18
2023-09-27T08:48:49.444Z,23.36
2023-09-27T08:52:52.279Z,23.50
2023-09-27T08:56:56.561Z,23.60
2023-09-27T09:00:58.775Z,23.70
2023-09-27T09:05:00.769Z,23.82
2023-09-27T09:09:12.694Z,23.95
2023-09-27T09:13:17.954Z,24.06
2023-09-27T09:17:20.456Z,24.16
2023-09-27T09:21:25.888Z,24.25
2023-09-27T09:25:29.079Z,24.36
2023-09-27T09:29:49.167Z,24.45
2023-09-27T09:34:04.164Z,24.46
2023-09-27T09:38:06.222Z,24.51
2023-09-27T09:42:09.406Z,24.64
2023-09-27T09:46:14.040Z,24.81
2023-09-27T09:50:19.389Z,24.96
2023-09-27T09:59:04.562Z,25.19
2023-09-27T10:03:16.370Z,25.25
2023-09-27T10:07:18.732Z,25.33
2023-09-27T10:11:23.987Z,25.41
2023-09-27T10:15:27.616Z,25.44
2023-09-27T10:19:30.143Z,25.52
2023-09-27T10:23:45.017Z,25.59
2023-09-27T10:28:02.361Z,25.70
2023-09-27T10:32:04.408Z,25.82
2023-09-27T10:36:27.376Z,25.94
2023-09-27T10:40:41.729Z,25.99
2023-09-27T10:44:44.423Z,26.03
2023-09-27T10:48:58.797Z,26.10
2023-09-27T10:53:00.844Z,26.22
2023-09-27T10:57:03.335Z,26.31
2023-09-27T11:01:05.503Z,26.42
2023-09-27T11:05:08.939Z,26.50
2023-09-27T11:09:12.949Z,26.58
2023-09-27T11:13:15.124Z,26.68
2023-09-27T11:17:24.468Z,26.83
2023-09-27T11:21:27.650Z,26.92
2023-09-27T11:25:31.542Z,27.02
2023-09-27T11:29:33.596Z,27.09
2023-09-27T11:33:35.578Z,27.17
2023-09-27T11:37:39.991Z,27.24
2023-09-27T11:41:44.465Z,27.30
2023-09-27T11:45:50.880Z,27.36
2023-09-27T11:49:52.928Z,27.41
2023-09-27T11:53:55.193Z,27.49
2023-09-27T11:57:58.856Z,27.60
2023-09-27T12:02:09.225Z,27.68
2023-09-27T12:06:15.579Z,27.76
2023-09-27T12:10:18.092Z,27.76
2023-09-27T12:14:20.243Z,27.71
2023-09-27T12:18:23.738Z,27.74
2023-09-27T12:22:25.783Z,27.79
2023-09-27T12:26:27.886Z,27.84
2023-09-27T12:30:30.084Z,27.86
2023-09-27T12:34:32.044Z,27.91
2023-09-27T12:38:34.114Z,27.97
2023-09-27T12:42:36.550Z,28.03
2023-09-27T12:46:39.721Z,28.06
2023-09-27T12:50:42.649Z,28.08
2023-09-27T12:54:46.226Z,28.11
2023-09-27T12:58:48.329Z,28.14
2023-09-27T13:02:50.919Z,28.17
2023-09-27T13:06:53.048Z,28.19
2023-09-27T13:10:55.165Z,28.19
2023-09-27T13:14:57.689Z,28.14
2023-09-27T13:19:00.129Z,28.09
2023-09-27T13:23:02.245Z,28.10
2023-09-27T13:27:04.720Z,28.12
2023-09-27T13:31:06.744Z,28.13
2023-09-27T13:35:08.984Z,28.13
2023-09-27T13:39:25.810Z,28.06
2023-09-27T13:43:29.302Z,27.92
2023-09-27T13:47:31.643Z,27.90
2023-09-27T13:51:36.660Z,27.91
2023-09-27T13:55:39.011Z,27.86
2023-09-27T13:59:41.058Z,27.85
2023-09-27T14:03:43.135Z,27.83
2023-09-27T14:07:45.418Z,27.81
2023-09-27T14:11:47.406Z,27.80
2023-09-27T14:15:49.481Z,27.76
2023-09-27T14:19:51.777Z,27.71
2023-09-27T14:23:54.598Z,27.65
2023-09-27T14:27:58.288Z,27.60
2023-09-27T14:32:00.557Z,27.55
2023-09-27T14:36:05.844Z,27.49
2023-09-27T14:40:10.343Z,27.34
2023-09-27T14:44:13.018Z,27.22
2023-09-27T14:48:14.959Z,27.11
2023-09-27T14:52:16.962Z,27.01
2023-09-27T14:56:19.131Z,26.90
2023-09-27T15:00:23.291Z,26.75
2023-09-27T15:04:26.215Z,26.60
2023-09-27T15:08:28.641Z,26.48
2023-09-27T15:12:30.530Z,26.34
2023-09-27T15:16:34.692Z,26.21
2023-09-27T15:20:36.615Z,26.06
2023-09-27T15:24:38.865Z,25.90
2023-09-27T15:28:41.458Z,25.73
2023-09-27T15:32:43.484Z,25.55
2023-09-27T15:36:45.673Z,25.38
2023-09-27T15:40:47.659Z,25.20
2023-09-27T15:44:50.730Z,25.00
2023-09-27T15:48:53.229Z,24.81
2023-09-27T15:52:55.332Z,24.62
2023-09-27T15:56:57.490Z,24.41
2023-09-27T16:01:01.002Z,24.21
2023-09-27T16:05:04.709Z,23.99
2023-09-27T16:09:08.372Z,23.76
2023-09-27T16:13:10.532Z,23.50
2023-09-27T16:17:12.670Z,23.26
2023-09-27T16:27:08.942Z,22.60
2023-09-27T16:31:33.117Z,22.26
2023-09-27T16:35:39.918Z,21.95
2023-09-27T16:39:42.423Z,21.64
2023-09-27T16:43:44.746Z,21.36
2023-09-27T16:47:52.072Z,21.05
2023-09-27T16:51:54.412Z,20.76
2023-09-27T16:55:56.714Z,20.46
2023-09-27T16:59:58.973Z,20.17
2023-09-27T17:04:01.315Z,19.90
2023-09-27T17:08:04.295Z,19.71
2023-09-27T17:12:06.879Z,19.56
2023-09-27T17:16:09.082Z,19.45
2023-09-27T17:20:11.559Z,19.39
2023-09-27T17:24:14.264Z,19.34
2023-09-27T17:28:16.437Z,19.22
2023-09-27T17:32:18.831Z,19.04
2023-09-27T17:36:21.263Z,18.85
2023-09-27T17:40:23.637Z,18.71
2023-09-27T17:44:25.918Z,18.57
2023-09-27T17:48:28.077Z,18.46
2023-09-27T17:52:30.357Z,18.39
2023-09-27T17:56:32.921Z,18.28
2023-09-27T18:00:35.085Z,18.11
2023-09-27T18:04:39.346Z,17.93
2023-09-27T18:08:41.808Z,17.78
2023-09-27T18:12:43.850Z,17.75
2023-09-27T18:16:46.506Z,17.71
2023-09-27T18:20:49.579Z,17.63
2023-09-27T18:24:51.759Z,17.49
2023-09-27T18:28:55.041Z,17.36
2023-09-27T18:32:57.154Z,17.27
2023-09-27T18:36:59.226Z,17.23
2023-09-27T18:41:01.358Z,17.22
2023-09-27T18:45:03.674Z,17.19
2023-09-27T18:49:05.597Z,17.13
2023-09-27T18:53:08.347Z,17.02
2023-09-27T18:57:10.972Z,16.94
2023-09-27T19:01:13.952Z,16.89
2023-09-27T19:05:16.179Z,16.86
2023-09-27T19:09:19.291Z,16.81
2023-09-27T19:13:21.345Z,16.71
2023-09-27T19:17:23.585Z,16.62
2023-09-27T19:21:25.589Z,16.45
2023-09-27T19:25:27.734Z,16.33
2023-09-27T19:29:29.813Z,16.29
2023-09-27T19:33:31.955Z,16.27
2023-09-27T19:37:34.015Z,16.26
2023-09-27T19:41:36.056Z,16.23
2023-09-27T19:45:38.102Z,16.17
2023-09-27T19:49:40.484Z,16.12
2023-09-27T19:53:42.676Z,16.11
2023-09-27T19:57:45.384Z,16.11
2023-09-27T20:01:48.103Z,16.07
2023-09-27T20:05:50.211Z,16.02
2023-09-27T20:09:52.390Z,15.94
2023-09-27T20:13:54.628Z,15.81
2023-09-27T20:17:56.860Z,15.76
2023-09-27T20:21:58.902Z,15.70
2023-09-27T20:26:02.256Z,15.67
2023-09-27T20:30:04.669Z,15.59
2023-09-27T20:34:06.695Z,15.46
2023-09-27T20:38:09.838Z,15.41
2023-09-27T20:42:13.379Z,15.41
2023-09-27T20:46:16.714Z,15.42
2023-09-27T20:50:18.790Z,15.41
2023-09-27T20:54:21.144Z,15.38
2023-09-27T20:58:23.232Z,15.28
2023-09-27T21:02:25.242Z,15.17
2023-09-27T21:06:28.674Z,15.10
2023-09-27T21:10:31.128Z,15.06
2023-09-27T21:14:37.745Z,14.98
2023-09-27T21:18:39.701Z,14.89
2023-09-27T21:22:41.709Z,14.87
2023-09-27T21:26:43.722Z,14.88
2023-09-27T21:30:45.868Z,14.90
2023-09-27T21:34:49.221Z,14.87
2023-09-27T21:38:51.401Z,14.84
2023-09-27T21:42:53.526Z,14.80
2023-09-27T21:46:55.539Z,14.79
2023-09-27T21:50:57.706Z,14.80
2023-09-27T21:54:59.708Z,14.87
2023-09-27T21:59:02.583Z,14.96
2023-09-27T22:03:05.339Z,15.04
2023-09-27T22:07:07.554Z,15.06
2023-09-27T22:11:09.602Z,15.03
2023-09-27T22:15:11.671Z,14.86
2023-09-27T22:19:13.626Z,14.69
2023-09-27T22:23:34.440Z,14.61
2023-09-27T22:27:36.759Z,14.50
2023-09-27T22:31:39.735Z,14.42
2023-09-27T22:35:48.748Z,14.33
2023-09-27T22:39:52.993Z,14.21
2023-09-27T22:44:01.307Z,14.17
2023-09-27T22:48:04.170Z,14.16
2023-09-27T22:52:09.607Z,14.11
2023-09-27T22:56:11.790Z,14.06
2023-09-27T23:00:20.687Z,14.04
2023-09-27T23:04:23.477Z,14.03
2023-09-27T23:08:28.317Z,14.00
2023-09-27T23:12:36.557Z,13.88
2023-09-27T23:16:48.250Z,13.74
2023-09-27T23:20:50.281Z,13.56
2023-09-27T23:25:12.225Z,13.35
2023-09-27T23:29:34.325Z,13.17
2023-09-27T23:33:44.276Z,13.20
2023-09-27T23:37:47.007Z,13.22
2023-09-27T23:42:02.300Z,13.27
2023-09-27T23:46:06.703Z,13.24
2023-09-27T23:50:11.734Z,13.16
2023-09-27T23:54:14.341Z,13.04
2023-09-27T23:58:16.279Z,12.99
